Palos Heights, Illinois
Current Conditions -  °F | °C
As of 10:53 PM on Friday 21 Nov 2014 (Local Time) from KMDW Reporting Station
Overcast Overcast  
Wind Chill: 27°   Ceiling: 3200
Heat Index: 35°   Visibility: 10mi
Dew Point: 11°   Wind: 10mph
Humidity: 37%   Direction: 190°S
Pressure: 30.2"   Gusts: NA
Location:  41.68°N, 87.81°W
Report Text: KMDW 220453Z 19009KT 10SM OVC032 02/M12 A3020 RMK AO2 SLP238 T00171117
Loading
Personal Weather Stations






























Interactive Weather Map New forecast layout! Learn more

10-Day Weather Forecast

Advertisements
Track Severe Weather on mobile